Terminal Aerodrome Forecast
Issued by NWS

Home | Current Version | Previous Version | Text Only | Print | Product List | Glossary On
Versions: 1 2 3 4 5 6 7 8 9 10 11 12 13 14 15 16 17 18 19 20 21 22 23 24 25 26 27 28
000
FTUS44 KOUN 010801 AAA
TAFCSM
TAF AMD
KCSM 010801Z 0108/0206 21010KT 1SM BR OVC005
      TEMPO 0108/0109 OVC003
     FM011100 32014KT 5SM BR OVC008
     FM011400 35020G28KT P6SM BKN015
     FM011700 35024G33KT P6SM BKN025
     FM012000 35024G32KT P6SM SCT030
     FM020200 36013KT P6SM SKC=

USA.gov is the U.S. government's official web portal to all federal, state and local government web resources and services.